createdAt,value
2023-01-17T00:01:34.027Z,5.30
2023-01-17T00:04:20.098Z,5.30
2023-01-17T00:07:05.466Z,5.30
2023-01-17T00:09:51.109Z,5.20
2023-01-17T00:12:20.243Z,5.10
2023-01-17T00:14:49.858Z,5.10
2023-01-17T00:17:17.898Z,5.00
2023-01-17T00:20:03.550Z,5.00
2023-01-17T00:22:50.339Z,5.00
2023-01-17T00:25:37.791Z,5.00
2023-01-17T00:28:05.334Z,5.00
2023-01-17T00:30:33.986Z,5.00
2023-01-17T00:33:00.875Z,5.00
2023-01-17T00:35:30.528Z,5.10
2023-01-17T00:38:01.884Z,5.10
2023-01-17T00:40:29.080Z,5.10
2023-01-17T00:43:14.560Z,5.20
2023-01-17T00:46:02.870Z,5.20
2023-01-17T00:48:48.521Z,5.20
2023-01-17T00:51:34.854Z,5.20
2023-01-17T00:54:20.145Z,5.20
2023-01-17T00:57:05.469Z,5.30
2023-01-17T00:59:51.098Z,5.30
2023-01-17T01:02:38.771Z,5.30
2023-01-17T01:05:24.656Z,5.30
2023-01-17T01:08:10.357Z,5.30
2023-01-17T01:10:55.705Z,5.30
2023-01-17T01:13:42.265Z,5.20
2023-01-17T01:16:28.002Z,5.20
2023-01-17T01:19:15.591Z,5.10
2023-01-17T01:22:01.055Z,5.10
2023-01-17T01:24:46.633Z,5.10
2023-01-17T01:27:32.121Z,5.10
2023-01-17T01:30:17.574Z,5.10
2023-01-17T01:33:03.220Z,5.10
2023-01-17T01:35:32.585Z,5.10
2023-01-17T01:38:00.530Z,5.10
2023-01-17T01:40:28.498Z,5.10
2023-01-17T01:42:57.971Z,5.20
2023-01-17T01:45:28.573Z,5.20
2023-01-17T01:48:00.622Z,5.20
2023-01-17T01:50:30.505Z,5.20
2023-01-17T01:53:03.931Z,5.10
2023-01-17T01:55:35.840Z,5.20
2023-01-17T01:58:09.568Z,5.10
2023-01-17T02:00:40.822Z,5.10
2023-01-17T02:03:12.962Z,5.10
2023-01-17T02:05:42.443Z,5.10
2023-01-17T02:08:15.694Z,5.10
2023-01-17T02:10:44.532Z,5.00
2023-01-17T02:13:15.860Z,5.00
2023-01-17T02:15:53.739Z,5.10
2023-01-17T02:18:30.578Z,5.00
2023-01-17T02:21:26.886Z,5.00
2023-01-17T02:24:33.187Z,4.90
2023-01-17T02:27:05.463Z,4.90
2023-01-17T02:30:06.275Z,5.00
2023-01-17T02:32:47.171Z,5.00
2023-01-17T02:35:23.259Z,5.00
2023-01-17T02:37:58.779Z,5.10
2023-01-17T02:40:30.638Z,5.10
2023-01-17T02:43:05.533Z,5.10
2023-01-17T02:45:33.658Z,5.10
2023-01-17T02:48:03.115Z,5.10
2023-01-17T02:50:46.358Z,5.10
2023-01-17T02:53:30.192Z,5.00
2023-01-17T02:56:05.391Z,5.00
2023-01-17T02:58:50.027Z,5.00
2023-01-17T03:01:24.670Z,5.00
2023-01-17T03:03:58.632Z,5.00
2023-01-17T03:06:32.259Z,5.00
2023-01-17T03:09:00.297Z,5.10
2023-01-17T03:11:28.467Z,5.00
2023-01-17T03:13:57.464Z,5.00
2023-01-17T03:16:27.409Z,5.00
2023-01-17T03:18:56.780Z,5.00
2023-01-17T03:21:25.525Z,5.00
2023-01-17T03:23:53.687Z,5.00
2023-01-17T03:26:21.675Z,5.00
2023-01-17T03:28:49.679Z,5.00
2023-01-17T03:31:19.788Z,4.90
2023-01-17T03:33:47.918Z,4.90
2023-01-17T03:36:17.359Z,4.90
2023-01-17T03:38:45.371Z,4.90
2023-01-17T03:41:13.405Z,4.90
2023-01-17T03:43:41.407Z,4.80
2023-01-17T03:46:20.056Z,4.80
2023-01-17T03:48:48.229Z,4.80
2023-01-17T03:51:18.073Z,4.80
2023-01-17T03:53:46.870Z,4.80
2023-01-17T03:56:15.465Z,4.80
2023-01-17T03:58:43.672Z,4.90
2023-01-17T04:01:11.846Z,4.90
2023-01-17T04:03:39.890Z,4.80
2023-01-17T04:06:08.141Z,4.80
2023-01-17T04:08:37.634Z,4.80
2023-01-17T04:11:05.935Z,4.80
2023-01-17T04:13:33.932Z,4.80
2023-01-17T04:16:01.947Z,4.80
2023-01-17T04:18:30.231Z,4.80
2023-01-17T04:20:58.222Z,4.70
2023-01-17T04:23:26.286Z,4.70
2023-01-17T04:25:55.647Z,4.70
2023-01-17T04:28:23.613Z,4.60
2023-01-17T04:30:51.645Z,4.60
2023-01-17T04:33:19.654Z,4.60
2023-01-17T04:35:47.694Z,4.60
2023-01-17T04:38:15.840Z,4.70
2023-01-17T04:40:43.792Z,4.60
2023-01-17T04:43:13.231Z,4.60
2023-01-17T04:45:41.205Z,4.60
2023-01-17T04:48:12.516Z,4.60
2023-01-17T04:50:40.954Z,4.60
2023-01-17T04:53:08.933Z,4.70
2023-01-17T04:55:36.895Z,4.70
2023-01-17T04:58:04.945Z,4.70
2023-01-17T05:00:34.412Z,4.70
2023-01-17T05:03:02.533Z,4.70
2023-01-17T05:05:31.250Z,4.60
2023-01-17T05:07:59.893Z,4.60
2023-01-17T05:10:27.870Z,4.60
2023-01-17T05:12:56.873Z,4.70
2023-01-17T05:15:26.061Z,4.70
2023-01-17T05:17:56.159Z,4.70
2023-01-17T05:20:26.292Z,4.70
2023-01-17T05:22:55.801Z,4.70
2023-01-17T05:25:24.331Z,4.70
2023-01-17T05:27:52.647Z,4.70
2023-01-17T05:30:20.920Z,4.70
2023-01-17T05:32:50.479Z,4.80
2023-01-17T05:35:21.931Z,4.80
2023-01-17T05:37:50.829Z,4.90
2023-01-17T05:40:19.713Z,4.90
2023-01-17T05:42:48.381Z,4.90
2023-01-17T05:45:17.857Z,4.90
2023-01-17T05:47:46.445Z,4.90
2023-01-17T05:50:16.177Z,4.80
2023-01-17T05:52:50.687Z,4.90
2023-01-17T05:55:18.763Z,4.90
2023-01-17T05:57:46.998Z,4.90
2023-01-17T06:00:16.831Z,4.80
2023-01-17T06:02:46.085Z,4.80
2023-01-17T06:05:14.825Z,4.90
2023-01-17T06:07:46.910Z,4.90
2023-01-17T06:10:15.473Z,4.80
2023-01-17T06:12:44.375Z,4.80
2023-01-17T06:15:14.310Z,4.70
2023-01-17T06:17:42.797Z,4.70
2023-01-17T06:20:13.120Z,4.60
2023-01-17T06:22:41.234Z,4.60
2023-01-17T06:25:10.945Z,4.60
2023-01-17T06:27:38.912Z,4.60
2023-01-17T06:30:08.274Z,4.50
2023-01-17T06:32:36.402Z,4.60
2023-01-17T06:35:04.430Z,4.60
2023-01-17T06:37:32.426Z,4.60
2023-01-17T06:40:00.457Z,4.50
2023-01-17T06:42:29.761Z,4.50
2023-01-17T06:44:57.774Z,4.50
2023-01-17T06:47:25.794Z,4.40
2023-01-17T06:49:53.787Z,4.30
2023-01-17T06:52:21.808Z,4.30
2023-01-17T06:54:49.818Z,4.40
2023-01-17T06:57:17.812Z,4.40
2023-01-17T06:59:47.432Z,4.30
2023-01-17T07:02:15.518Z,4.30
2023-01-17T07:04:43.531Z,4.30
2023-01-17T07:07:11.678Z,4.30
2023-01-17T07:09:40.000Z,4.30
2023-01-17T07:12:08.366Z,4.30
2023-01-17T07:14:36.406Z,4.20
2023-01-17T07:17:05.890Z,4.20
2023-01-17T07:19:33.975Z,4.20
2023-01-17T07:22:02.322Z,4.30
2023-01-17T07:24:30.454Z,4.30
2023-01-17T07:26:58.446Z,4.30
2023-01-17T07:29:26.462Z,4.30
2023-01-17T07:31:54.473Z,4.30
2023-01-17T07:34:23.850Z,4.30
2023-01-17T07:36:51.858Z,4.40
2023-01-17T07:39:19.894Z,4.40
2023-01-17T07:41:47.888Z,4.40
2023-01-17T07:44:16.233Z,4.40
2023-01-17T07:46:44.332Z,4.40
2023-01-17T07:49:12.438Z,4.50
2023-01-17T07:51:41.828Z,4.40
2023-01-17T07:54:09.827Z,4.40
2023-01-17T07:56:38.852Z,4.40
2023-01-17T07:59:08.014Z,4.40
2023-01-17T08:01:36.127Z,4.40
2023-01-17T08:04:04.279Z,4.40
2023-01-17T08:06:32.351Z,4.40
2023-01-17T08:09:01.821Z,4.40
2023-01-17T08:11:29.929Z,4.40
2023-01-17T08:13:59.463Z,4.40
2023-01-17T08:16:29.699Z,4.30
2023-01-17T08:18:58.440Z,4.30
2023-01-17T08:21:26.540Z,4.40
2023-01-17T08:23:54.548Z,4.40
2023-01-17T08:26:24.069Z,4.40
2023-01-17T08:28:56.860Z,4.40
2023-01-17T08:31:25.312Z,4.40
2023-01-17T08:33:53.559Z,4.40
2023-01-17T08:36:21.639Z,4.40
2023-01-17T08:38:52.760Z,4.40
2023-01-17T08:41:21.133Z,4.40
2023-01-17T08:43:51.832Z,4.40
2023-01-17T08:46:20.285Z,4.40
2023-01-17T08:48:48.750Z,4.40
2023-01-17T08:51:16.972Z,4.50
2023-01-17T08:53:45.396Z,4.60
2023-01-17T08:56:13.442Z,4.60
2023-01-17T08:58:41.734Z,4.70
2023-01-17T09:01:11.398Z,4.80
2023-01-17T09:03:41.083Z,4.80
2023-01-17T09:06:12.303Z,4.80
2023-01-17T09:08:40.928Z,4.80
2023-01-17T09:11:11.818Z,4.80
2023-01-17T09:13:40.532Z,4.90
2023-01-17T09:16:10.752Z,5.00
2023-01-17T09:18:38.816Z,5.10
2023-01-17T09:21:14.413Z,5.20
2023-01-17T09:23:43.567Z,5.30
2023-01-17T09:26:20.017Z,5.30
2023-01-17T09:28:48.454Z,5.30
2023-01-17T09:31:18.531Z,5.50
2023-01-17T09:33:46.549Z,5.60
2023-01-17T09:36:14.872Z,5.70
2023-01-17T09:38:42.993Z,5.80
2023-01-17T09:41:27.379Z,5.80
2023-01-17T09:44:01.475Z,5.80
2023-01-17T09:46:34.776Z,5.80
2023-01-17T09:49:08.532Z,5.80
2023-01-17T09:51:37.800Z,5.90
2023-01-17T09:54:06.547Z,5.90
2023-01-17T09:56:41.333Z,6.00
2023-01-17T09:59:33.265Z,6.20
2023-01-17T10:02:17.971Z,6.30
2023-01-17T10:04:58.527Z,6.60
2023-01-17T10:07:38.746Z,6.60
2023-01-17T10:10:20.490Z,6.60
2023-01-17T10:12:56.102Z,6.50
2023-01-17T10:15:40.082Z,6.60
2023-01-17T10:18:30.379Z,6.70
2023-01-17T10:21:06.752Z,6.60
2023-01-17T10:23:54.088Z,6.50
2023-01-17T10:26:25.523Z,6.50
2023-01-17T10:28:56.440Z,6.40
2023-01-17T10:31:25.981Z,6.40
2023-01-17T10:33:57.573Z,6.40
2023-01-17T10:36:27.669Z,6.30
2023-01-17T10:38:58.615Z,6.40
2023-01-17T10:41:30.470Z,6.40
2023-01-17T10:44:10.824Z,6.50
2023-01-17T10:46:46.111Z,6.20
2023-01-17T10:49:19.750Z,6.20
2023-01-17T10:52:00.916Z,6.10
2023-01-17T10:54:59.098Z,6.10
2023-01-17T10:57:28.783Z,6.20
2023-01-17T11:00:01.015Z,6.30
2023-01-17T11:02:33.355Z,6.30
2023-01-17T11:05:12.306Z,6.30
2023-01-17T11:07:43.987Z,6.40
2023-01-17T11:10:40.833Z,6.40
2023-01-17T11:13:23.786Z,6.30
2023-01-17T11:15:54.140Z,6.30
2023-01-17T11:18:22.821Z,6.30
2023-01-17T11:20:52.466Z,6.20
2023-01-17T11:23:23.782Z,6.30
2023-01-17T11:25:55.151Z,6.30
2023-01-17T11:28:26.292Z,6.20
2023-01-17T11:30:56.497Z,6.40
2023-01-17T11:33:45.206Z,6.30
2023-01-17T11:36:23.333Z,6.20
2023-01-17T11:38:59.912Z,6.10
2023-01-17T11:41:29.248Z,6.00
2023-01-17T11:43:58.793Z,6.00
2023-01-17T11:46:28.268Z,6.10
2023-01-17T11:48:59.475Z,6.20
2023-01-17T11:51:31.644Z,6.20
2023-01-17T11:54:16.058Z,6.30
2023-01-17T11:56:46.244Z,6.40
2023-01-17T11:59:23.625Z,6.50
2023-01-17T12:02:02.937Z,6.50
2023-01-17T12:04:39.619Z,6.50
2023-01-17T12:07:26.563Z,6.40
2023-01-17T12:10:04.743Z,6.40
2023-01-17T12:13:04.316Z,6.40
2023-01-17T12:15:45.770Z,6.30
2023-01-17T12:18:28.326Z,6.30
2023-01-17T12:21:07.830Z,6.30
2023-01-17T12:23:55.830Z,6.40
2023-01-17T12:26:35.854Z,6.30
2023-01-17T12:29:36.020Z,6.40
2023-01-17T12:32:19.554Z,6.30
2023-01-17T12:34:53.483Z,6.40
2023-01-17T12:37:24.925Z,6.70
2023-01-17T12:39:58.127Z,6.90
2023-01-17T12:42:31.923Z,7.00
2023-01-17T12:45:05.910Z,7.20
2023-01-17T12:47:38.036Z,7.40
2023-01-17T12:50:16.758Z,7.50
2023-01-17T12:52:54.570Z,7.50
2023-01-17T12:55:34.802Z,7.60
2023-01-17T12:58:07.132Z,7.70
2023-01-17T13:00:40.063Z,7.80
2023-01-17T13:03:16.734Z,7.80
2023-01-17T13:05:48.549Z,7.80
2023-01-17T13:08:25.175Z,7.70
2023-01-17T13:10:58.566Z,7.80
2023-01-17T13:13:28.324Z,7.90
2023-01-17T13:15:58.951Z,7.90
2023-01-17T13:18:29.811Z,7.90
2023-01-17T13:21:08.560Z,7.80
2023-01-17T13:24:07.887Z,7.70
2023-01-17T13:26:50.878Z,7.60
2023-01-17T13:29:30.913Z,7.60
2023-01-17T13:32:12.798Z,7.60
2023-01-17T13:35:05.230Z,7.50
2023-01-17T13:37:47.533Z,7.40
2023-01-17T13:40:33.922Z,7.50
2023-01-17T13:43:05.744Z,7.40
2023-01-17T13:45:35.901Z,7.40
2023-01-17T13:48:32.513Z,7.40
2023-01-17T13:51:02.639Z,7.60
2023-01-17T13:53:55.034Z,7.70
2023-01-17T13:56:34.225Z,7.60
2023-01-17T13:59:31.285Z,7.50
2023-01-17T14:01:59.450Z,7.50
2023-01-17T14:04:57.321Z,7.60
2023-01-17T14:07:27.617Z,7.60
2023-01-17T14:09:55.748Z,7.60
2023-01-17T14:12:31.412Z,7.60
2023-01-17T14:15:02.364Z,7.50
2023-01-17T14:17:59.152Z,7.40
2023-01-17T14:21:08.569Z,7.30
2023-01-17T14:23:58.281Z,7.20
2023-01-17T14:26:48.255Z,7.10
2023-01-17T14:29:47.044Z,7.10
2023-01-17T14:32:19.574Z,7.00
2023-01-17T14:34:49.341Z,7.00
2023-01-17T14:37:21.945Z,6.90
2023-01-17T14:39:51.928Z,6.90
2023-01-17T14:42:23.273Z,6.90
2023-01-17T14:44:53.848Z,6.80
2023-01-17T14:47:23.481Z,6.80
2023-01-17T14:50:11.300Z,6.90
2023-01-17T14:52:39.479Z,6.90
2023-01-17T14:55:17.309Z,6.90
2023-01-17T14:57:55.006Z,6.80
2023-01-17T15:00:29.058Z,6.80
2023-01-17T15:03:00.609Z,6.80
2023-01-17T15:05:31.445Z,6.70
2023-01-17T15:07:59.961Z,6.70
2023-01-17T15:10:31.062Z,6.70
2023-01-17T15:13:07.211Z,6.70
2023-01-17T15:15:38.382Z,6.60
2023-01-17T15:18:20.182Z,6.60
2023-01-17T15:20:56.353Z,6.70
2023-01-17T15:23:29.866Z,6.80
2023-01-17T15:25:59.111Z,6.70
2023-01-17T15:28:27.519Z,6.70
2023-01-17T15:31:04.232Z,6.60
2023-01-17T15:33:34.901Z,6.50
2023-01-17T15:36:05.386Z,6.50
2023-01-17T15:38:38.822Z,6.40
2023-01-17T15:41:13.580Z,6.40
2023-01-17T15:43:42.955Z,6.30
2023-01-17T15:46:28.306Z,6.30
2023-01-17T15:49:08.114Z,6.20
2023-01-17T15:51:41.487Z,6.20
2023-01-17T15:54:32.381Z,6.10
2023-01-17T15:57:17.969Z,6.10
2023-01-17T15:59:48.947Z,6.10
2023-01-17T16:02:37.862Z,6.00
2023-01-17T16:05:43.631Z,6.00
2023-01-17T16:08:30.546Z,6.00
2023-01-17T16:11:02.163Z,5.90
2023-01-17T16:13:32.023Z,6.00
2023-01-17T16:16:22.716Z,6.00
2023-01-17T16:18:58.624Z,6.00
2023-01-17T16:21:30.175Z,5.90
2023-01-17T16:23:59.230Z,5.80
2023-01-17T16:26:28.976Z,5.80
2023-01-17T16:28:57.347Z,5.80
2023-01-17T16:31:25.747Z,5.80
2023-01-17T16:33:53.961Z,5.80
2023-01-17T16:36:22.853Z,5.80
2023-01-17T16:38:53.141Z,5.70
2023-01-17T16:41:21.661Z,5.70
2023-01-17T16:43:59.616Z,5.60
2023-01-17T16:46:28.030Z,5.40
2023-01-17T16:48:56.366Z,5.40
2023-01-17T16:51:24.635Z,5.30
2023-01-17T16:53:54.018Z,5.30
2023-01-17T16:56:22.120Z,5.30
2023-01-17T16:58:51.968Z,5.20
2023-01-17T17:01:21.277Z,5.20
2023-01-17T17:03:50.106Z,5.10
2023-01-17T17:06:18.280Z,5.20
2023-01-17T17:08:46.355Z,5.10
2023-01-17T17:11:18.357Z,5.10
2023-01-17T17:13:47.703Z,5.10
2023-01-17T17:16:18.284Z,5.10
2023-01-17T17:18:47.752Z,5.10
2023-01-17T17:21:15.784Z,5.00
2023-01-17T17:23:43.831Z,5.00
2023-01-17T17:26:12.064Z,5.00
2023-01-17T17:28:41.619Z,5.00
2023-01-17T17:31:11.582Z,5.00
2023-01-17T17:33:39.887Z,4.80
2023-01-17T17:36:10.738Z,4.80
2023-01-17T17:38:50.904Z,4.80
2023-01-17T17:41:20.891Z,4.80
2023-01-17T17:43:52.134Z,4.80
2023-01-17T17:46:21.131Z,4.70
2023-01-17T17:48:49.545Z,4.70
2023-01-17T17:51:26.159Z,4.70
2023-01-17T17:53:54.769Z,4.70
2023-01-17T17:56:23.456Z,4.70
2023-01-17T17:58:53.031Z,4.70
2023-01-17T18:01:22.648Z,4.80
2023-01-17T18:03:51.113Z,4.80
2023-01-17T18:06:19.711Z,4.80
2023-01-17T18:08:47.975Z,4.80
2023-01-17T18:11:18.500Z,4.80
2023-01-17T18:13:50.218Z,4.80
2023-01-17T18:16:21.764Z,4.70
2023-01-17T18:18:51.358Z,4.70
2023-01-17T18:21:23.534Z,4.60
2023-01-17T18:23:54.522Z,4.50
2023-01-17T18:26:24.192Z,4.40
2023-01-17T18:28:53.338Z,4.30
2023-01-17T18:31:24.305Z,4.30
2023-01-17T18:33:53.603Z,4.30
2023-01-17T18:36:23.309Z,4.30
2023-01-17T18:38:52.326Z,4.40
2023-01-17T18:41:22.443Z,4.40
2023-01-17T18:43:50.853Z,4.40
2023-01-17T18:46:21.242Z,4.30
2023-01-17T18:48:50.734Z,4.30
2023-01-17T18:51:20.346Z,4.20
2023-01-17T18:53:48.843Z,4.20
2023-01-17T18:56:20.095Z,4.10
2023-01-17T18:58:49.707Z,4.10
2023-01-17T19:01:19.932Z,4.00
2023-01-17T19:03:50.719Z,4.00
2023-01-17T19:06:20.537Z,4.00
2023-01-17T19:08:49.363Z,4.00
2023-01-17T19:11:17.434Z,3.90
2023-01-17T19:13:45.796Z,3.90
2023-01-17T19:16:16.067Z,3.90
2023-01-17T19:18:44.553Z,3.90
2023-01-17T19:21:16.835Z,3.80
2023-01-17T19:23:44.973Z,3.80
2023-01-17T19:26:15.051Z,3.80
2023-01-17T19:28:45.698Z,3.70
2023-01-17T19:31:16.011Z,3.60
2023-01-17T19:33:46.850Z,3.60
2023-01-17T19:36:18.427Z,3.60
2023-01-17T19:39:03.094Z,3.70
2023-01-17T19:41:32.462Z,3.60
2023-01-17T19:44:02.328Z,3.60
2023-01-17T19:46:31.018Z,3.60
2023-01-17T19:48:59.629Z,3.60
2023-01-17T19:51:29.900Z,3.60
2023-01-17T19:54:01.339Z,3.60
2023-01-17T19:56:30.006Z,3.50
2023-01-17T19:59:01.008Z,3.50
2023-01-17T20:01:31.245Z,3.50
2023-01-17T20:04:00.853Z,3.50
2023-01-17T20:06:31.925Z,3.40
2023-01-17T20:09:00.606Z,3.40
2023-01-17T20:11:29.409Z,3.40
2023-01-17T20:13:58.782Z,3.50
2023-01-17T20:16:28.913Z,3.50
2023-01-17T20:18:58.843Z,3.50
2023-01-17T20:21:28.615Z,3.60
2023-01-17T20:23:59.638Z,3.50
2023-01-17T20:26:34.565Z,3.40
2023-01-17T20:29:03.320Z,3.40
2023-01-17T20:31:32.213Z,3.30
2023-01-17T20:34:00.357Z,3.30
2023-01-17T20:36:29.989Z,3.20
2023-01-17T20:39:00.791Z,3.10
2023-01-17T20:41:31.805Z,3.00
2023-01-17T20:44:01.059Z,2.90
2023-01-17T20:46:33.224Z,3.00
2023-01-17T20:49:01.621Z,3.00
2023-01-17T20:51:30.832Z,2.90
2023-01-17T20:54:02.681Z,2.90
2023-01-17T20:56:34.521Z,3.00
2023-01-17T20:59:03.699Z,2.90
2023-01-17T21:01:32.069Z,2.90
2023-01-17T21:04:00.286Z,3.00
2023-01-17T21:06:28.640Z,2.90
2023-01-17T21:08:56.861Z,2.90
2023-01-17T21:11:28.620Z,2.90
2023-01-17T21:13:57.378Z,2.90
2023-01-17T21:16:27.945Z,3.00
2023-01-17T21:18:56.374Z,2.90
2023-01-17T21:21:26.188Z,2.90
2023-01-17T21:23:57.262Z,2.90
2023-01-17T21:26:28.198Z,2.80
2023-01-17T21:28:56.713Z,2.80
2023-01-17T21:31:27.387Z,2.90
2023-01-17T21:33:58.020Z,2.70
2023-01-17T21:36:28.205Z,2.70
2023-01-17T21:38:58.166Z,2.70
2023-01-17T21:41:30.105Z,2.70
2023-01-17T21:43:59.998Z,2.70
2023-01-17T21:46:29.309Z,2.60
2023-01-17T21:48:57.971Z,2.60
2023-01-17T21:51:52.161Z,2.70
2023-01-17T21:54:20.383Z,2.70
2023-01-17T21:57:12.540Z,2.90
2023-01-17T21:59:40.825Z,2.90
2023-01-17T22:02:10.494Z,2.90
2023-01-17T22:04:39.471Z,2.90
2023-01-17T22:07:07.836Z,2.80
2023-01-17T22:09:35.870Z,2.80
2023-01-17T22:12:05.797Z,2.80
2023-01-17T22:14:33.833Z,2.80
2023-01-17T22:17:01.879Z,2.70
2023-01-17T22:19:29.902Z,2.80
2023-01-17T22:21:57.918Z,2.70
2023-01-17T22:24:26.114Z,2.60
2023-01-17T22:26:54.253Z,2.60
2023-01-17T22:29:23.590Z,2.60
2023-01-17T22:31:51.668Z,2.60
2023-01-17T22:34:19.876Z,2.70
2023-01-17T22:36:48.837Z,2.60
2023-01-17T22:39:16.944Z,2.50
2023-01-17T22:41:45.213Z,2.40
2023-01-17T22:44:13.404Z,2.40
2023-01-17T22:46:42.968Z,2.50
2023-01-17T22:49:15.753Z,2.40
2023-01-17T22:51:43.804Z,2.40
2023-01-17T22:54:12.316Z,2.30
2023-01-17T22:56:40.417Z,2.20
2023-01-17T22:59:11.459Z,2.20
2023-01-17T23:01:41.390Z,2.20
2023-01-17T23:04:14.385Z,2.10
2023-01-17T23:06:42.810Z,2.10
2023-01-17T23:09:13.302Z,2.00
2023-01-17T23:11:46.716Z,2.00
2023-01-17T23:14:17.356Z,2.00
2023-01-17T23:17:05.090Z,1.90
2023-01-17T23:19:36.911Z,1.80
2023-01-17T23:22:19.235Z,1.90
2023-01-17T23:24:52.667Z,1.90
2023-01-17T23:27:41.068Z,2.10
2023-01-17T23:30:11.726Z,2.20
2023-01-17T23:32:40.269Z,2.20
2023-01-17T23:35:10.099Z,2.20
2023-01-17T23:37:55.962Z,2.10
2023-01-17T23:40:24.537Z,2.10
2023-01-17T23:43:10.390Z,2.00
2023-01-17T23:45:39.565Z,2.10
2023-01-17T23:48:10.626Z,2.10
2023-01-17T23:50:41.444Z,2.00
2023-01-17T23:53:09.690Z,2.00
2023-01-17T23:55:39.265Z,1.90
2023-01-17T23:58:08.668Z,1.80
